Time;durP1;ratioP1;P1;durP2;ratioP2;P2;SDS_P1;SDS_P2;PMS_P1;PMS_P2;Temp;Humidity;BMP_temperature;BMP_pressure;BME280_temperature;BME280_humidity;BME280_pressure;Samples;Min_cycle;Max_cycle;Signal;HPM_P1;HPM_P2
2023/01/02 00:01:22;;;;;;;15.98;7.72;;;;;;;12.32;100.00;100906.31;2614718;36;20026;-59
2023/01/02 00:03:50;;;;;;;15.40;7.05;;;;;;;12.18;100.00;100902.25;2615636;36;20042;-60
2023/01/02 00:06:19;;;;;;;10.55;6.68;;;;;;;12.21;100.00;100902.78;2615452;36;20038;-60
2023/01/02 00:08:47;;;;;;;16.40;7.13;;;;;;;12.36;100.00;100903.19;2614219;36;20038;-60
2023/01/02 00:11:15;;;;;;;13.90;7.28;;;;;;;12.36;100.00;100900.47;2613741;36;20030;-60
2023/01/02 00:13:44;;;;;;;17.37;7.43;;;;;;;12.34;100.00;100898.94;2615328;36;20550;-60
2023/01/02 00:16:12;;;;;;;17.23;7.20;;;;;;;12.33;100.00;100889.13;2612527;31;20038;-59
2023/01/02 00:18:43;;;;;;;10.82;6.60;;;;;;;12.43;100.00;100881.84;2612277;36;20377;-59
2023/01/02 00:21:11;;;;;;;14.02;7.35;;;;;;;12.34;100.00;100883.59;2611721;31;20041;-60
2023/01/02 00:23:40;;;;;;;15.52;7.13;;;;;;;12.43;100.00;100885.41;2613173;36;20034;-60
2023/01/02 00:26:08;;;;;;;14.85;6.65;;;;;;;12.46;100.00;100884.25;2612297;36;20053;-60
2023/01/02 00:28:38;;;;;;;14.20;6.40;;;;;;;12.52;100.00;100882.81;2611601;36;20041;-60
2023/01/02 00:31:11;;;;;;;15.27;6.72;;;;;;;12.53;100.00;100877.28;2612516;36;20038;-60
2023/01/02 00:33:42;;;;;;;17.17;7.00;;;;;;;12.43;100.00;100885.41;2612227;36;20030;-61
2023/01/02 00:36:13;;;;;;;11.25;6.82;;;;;;;12.59;100.00;100873.13;2615318;31;20029;-60
2023/01/02 00:38:42;;;;;;;8.85;5.63;;;;;;;12.39;100.00;100883.16;2615539;36;20427;-59
2023/01/02 00:41:10;;;;;;;13.10;6.35;;;;;;;12.40;100.00;100880.28;2615631;31;20085;-60
2023/01/02 00:43:39;;;;;;;13.33;6.63;;;;;;;12.40;100.00;100871.34;2615434;36;20038;-59
2023/01/02 00:46:08;;;;;;;12.73;6.75;;;;;;;12.48;100.00;100871.44;2615463;31;20298;-59
2023/01/02 00:48:36;;;;;;;12.75;6.63;;;;;;;12.52;100.00;100862.06;2615085;36;20056;-60
2023/01/02 00:51:09;;;;;;;14.70;6.65;;;;;;;12.49;100.00;100867.75;2615620;36;20030;-61
2023/01/02 00:53:38;;;;;;;14.10;8.07;;;;;;;12.42;100.00;100866.66;2615754;36;20034;-62
2023/01/02 00:56:07;;;;;;;16.50;6.95;;;;;;;12.42;100.00;100866.66;2615175;36;20039;-61
2023/01/02 00:58:35;;;;;;;15.77;7.18;;;;;;;12.44;100.00;100864.69;2615267;36;20041;-61
2023/01/02 01:01:04;;;;;;;13.02;7.20;;;;;;;12.33;100.00;100857.59;2610831;36;20035;-60
2023/01/02 01:03:32;;;;;;;14.85;6.68;;;;;;;12.43;100.00;100849.47;2608538;36;20439;-61
2023/01/02 01:06:01;;;;;;;16.33;6.77;;;;;;;12.44;100.00;100851.19;2606409;36;20030;-61
2023/01/02 01:08:32;;;;;;;11.67;6.93;;;;;;;12.47;100.00;100837.38;2609514;36;20292;-61
2023/01/02 01:11:00;;;;;;;16.73;7.78;;;;;;;12.43;100.00;100842.22;2612391;36;20022;-60
2023/01/02 01:13:28;;;;;;;17.05;8.43;;;;;;;12.39;100.00;100843.50;2611603;36;20431;-61
2023/01/02 01:15:57;;;;;;;16.63;7.70;;;;;;;12.34;100.00;100847.66;2609972;31;20034;-60
2023/01/02 01:18:25;;;;;;;17.65;8.95;;;;;;;12.48;100.00;100839.06;2611030;36;20039;-61
2023/01/02 01:20:53;;;;;;;14.20;6.35;;;;;;;12.48;100.00;100841.75;2611146;36;20045;-61
2023/01/02 01:23:22;;;;;;;16.52;7.60;;;;;;;12.42;100.00;100834.25;2611992;36;20045;-60
2023/01/02 01:25:53;;;;;;;12.30;6.60;;;;;;;12.37;100.00;100847.38;2611656;36;20041;-61
2023/01/02 01:28:21;;;;;;;15.05;8.00;;;;;;;12.40;100.00;100836.28;2611010;36;20034;-60
2023/01/02 01:30:49;;;;;;;11.35;7.13;;;;;;;12.45;100.00;100833.97;2614632;36;20042;-62
2023/01/02 01:33:17;;;;;;;22.20;7.63;;;;;;;12.45;100.00;100839.34;2612131;31;20038;-61
2023/01/02 01:35:46;;;;;;;19.27;7.70;;;;;;;12.31;100.00;100837.13;2613940;36;20416;-60
2023/01/02 01:38:14;;;;;;;14.32;7.40;;;;;;;12.40;100.00;100839.81;2612697;36;20431;-60
2023/01/02 01:40:42;;;;;;;13.47;7.07;;;;;;;12.51;100.00;100833.34;2612353;36;20035;-59
2023/01/02 01:43:17;;;;;;;10.82;6.15;;;;;;;12.56;100.00;100841.88;2613586;36;20034;-60
2023/01/02 01:45:45;;;;;;;15.30;7.13;;;;;;;12.59;100.00;100836.16;2615208;36;20543;-60
2023/01/02 01:48:18;;;;;;;13.65;7.03;;;;;;;12.56;100.00;100836.47;2612755;36;20041;-60
2023/01/02 01:50:47;;;;;;;14.30;6.90;;;;;;;12.52;100.00;100836.94;2612547;36;20564;-60
2023/01/02 01:53:18;;;;;;;13.25;6.53;;;;;;;12.50;100.00;100831.69;2614528;36;20042;-60
2023/01/02 01:55:50;;;;;;;10.50;6.35;;;;;;;12.53;100.00;100825.97;2612745;36;20042;-60
2023/01/02 01:58:24;;;;;;;11.48;6.28;;;;;;;12.54;100.00;100824.97;2613133;36;20030;-60
2023/01/02 02:00:53;;;;;;;12.00;6.28;;;;;;;12.51;100.00;100827.97;2612893;36;20042;-60
2023/01/02 02:03:26;;;;;;;12.57;7.00;;;;;;;12.47;100.00;100821.19;2613323;36;20030;-60
2023/01/02 02:05:55;;;;;;;10.48;5.82;;;;;;;12.58;100.00;100818.25;2612607;36;21468;-60
2023/01/02 02:08:28;;;;;;;15.02;8.07;;;;;;;12.50;100.00;100822.72;2613396;36;20038;-60
2023/01/02 02:10:59;;;;;;;14.50;6.53;;;;;;;12.43;100.00;100825.19;2610929;36;22073;-59
2023/01/02 02:13:32;;;;;;;13.40;6.90;;;;;;;12.46;100.00;100822.16;2612591;36;20034;-61
2023/01/02 02:16:13;;;;;;;12.52;7.07;;;;;;;12.53;100.00;100823.28;2611960;36;20037;-60
2023/01/02 02:19:02;;;;;;;12.95;7.05;;;;;;;12.54;100.00;100822.25;2611130;36;20041;-59
2023/01/02 02:21:51;;;;;;;12.93;6.82;;;;;;;12.73;100.00;100821.31;2612596;36;20050;-60
2023/01/02 02:24:58;;;;;;;17.10;7.65;;;;;;;12.74;100.00;100819.47;2615956;36;20022;-60
2023/01/02 02:27:43;;;;;;;13.07;7.38;;;;;;;12.73;100.00;100824.00;2616475;31;20039;-60
2023/01/02 02:30:17;;;;;;;12.93;6.55;;;;;;;12.73;100.00;100820.47;2614818;36;20034;-59
2023/01/02 02:33:02;;;;;;;13.77;6.55;;;;;;;12.74;100.00;100827.56;2615810;31;20041;-59
2023/01/02 02:35:47;;;;;;;12.00;6.63;;;;;;;12.85;100.00;100823.81;2615505;36;20412;-61
2023/01/02 02:38:22;;;;;;;11.63;7.25;;;;;;;12.83;100.00;100826.66;2615948;31;20428;-59
2023/01/02 02:41:02;;;;;;;14.52;6.55;;;;;;;12.75;100.00;100826.56;2616507;36;20040;-61
2023/01/02 02:43:43;;;;;;;12.23;6.00;;;;;;;12.58;100.00;100828.22;2616245;36;20026;-60
2023/01/02 02:46:23;;;;;;;11.82;6.57;;;;;;;12.53;100.00;100825.97;2614937;36;20041;-61
2023/01/02 02:49:01;;;;;;;14.65;6.80;;;;;;;12.66;100.00;100819.38;2614814;36;20042;-60
2023/01/02 02:51:36;;;;;;;16.98;6.57;;;;;;;12.68;100.00;100820.09;2615385;36;20589;-60
2023/01/02 02:54:11;;;;;;;11.13;6.63;;;;;;;12.68;100.00;100818.22;2616033;36;20522;-59
2023/01/02 02:56:40;;;;;;;15.30;6.65;;;;;;;12.74;100.00;100817.59;2616020;36;20129;-60
2023/01/02 02:59:09;;;;;;;14.48;6.90;;;;;;;12.72;100.00;100803.41;2615883;36;20626;-60
2023/01/02 03:01:40;;;;;;;12.38;7.28;;;;;;;12.68;100.00;100817.38;2615980;36;20035;-59
2023/01/02 03:04:18;;;;;;;15.88;6.55;;;;;;;12.56;100.00;100809.47;2615947;36;20574;-60
2023/01/02 03:06:59;;;;;;;14.15;6.55;;;;;;;12.61;100.00;100809.84;2615210;36;20030;-59
2023/01/02 03:09:37;;;;;;;12.32;7.20;;;;;;;12.72;100.00;100808.81;2615432;36;20502;-61
2023/01/02 03:12:16;;;;;;;13.88;7.10;;;;;;;12.87;100.00;100809.16;2616073;36;20057;-60
2023/01/02 03:14:55;;;;;;;14.18;6.47;;;;;;;12.70;100.00;100804.56;2615106;31;20042;-60
2023/01/02 03:17:33;;;;;;;14.73;6.53;;;;;;;12.69;100.00;100802.84;2615709;36;20034;-59
2023/01/02 03:20:23;;;;;;;12.05;6.10;;;;;;;12.67;100.00;100794.91;2615572;36;20519;-59
2023/01/02 03:22:57;;;;;;;14.35;6.30;;;;;;;12.72;100.00;100789.03;2616413;36;20145;-60
2023/01/02 03:25:26;;;;;;;13.70;6.60;;;;;;;12.85;100.00;100791.38;2615748;36;20713;-60
2023/01/02 03:27:58;;;;;;;14.70;6.55;;;;;;;12.71;100.00;100795.47;2614164;31;20065;-61
2023/01/02 03:30:26;;;;;;;11.65;6.45;;;;;;;12.66;100.00;100786.97;2615413;31;20034;-59
2023/01/02 03:33:01;;;;;;;16.43;6.80;;;;;;;12.84;100.00;100782.44;2616412;31;20045;-59
2023/01/02 03:35:34;;;;;;;16.92;6.25;;;;;;;12.79;100.00;100787.44;2615646;36;20531;-60
2023/01/02 03:38:06;;;;;;;12.68;6.80;;;;;;;12.78;100.00;100788.47;2615279;36;20030;-60
2023/01/02 03:40:41;;;;;;;16.50;6.57;;;;;;;12.82;100.00;100772.78;2614772;36;20023;-58
2023/01/02 03:43:14;;;;;;;14.68;6.70;;;;;;;12.75;100.00;100783.34;2616007;31;20042;-60
2023/01/02 03:45:47;;;;;;;12.70;6.60;;;;;;;12.86;100.00;100788.53;2615853;36;20034;-59
2023/01/02 03:48:29;;;;;;;10.75;6.20;;;;;;;12.91;100.00;100791.63;2615028;36;20027;-59
2023/01/02 03:51:00;;;;;;;14.25;6.43;;;;;;;12.97;100.00;100785.63;2615840;36;20111;-60
2023/01/02 03:53:30;;;;;;;17.70;6.30;;;;;;;13.03;100.00;100780.59;2616273;36;20065;-60
2023/01/02 03:56:13;;;;;;;16.00;6.82;;;;;;;13.05;100.00;100778.59;2615777;31;20034;-60
2023/01/02 03:58:48;;;;;;;13.43;6.00;;;;;;;13.02;100.00;100787.84;2615523;36;20033;-60
2023/01/02 04:01:23;;;;;;;13.15;5.78;;;;;;;13.20;100.00;100779.75;2615842;36;20057;-59
2023/01/02 04:03:59;;;;;;;14.30;5.72;;;;;;;13.13;100.00;100790.34;2615219;36;20509;-60
2023/01/02 04:06:34;;;;;;;12.88;5.05;;;;;;;13.19;100.00;100779.91;2615291;36;20023;-59
2023/01/02 04:09:06;;;;;;;18.05;6.15;;;;;;;13.22;100.00;100788.56;2616781;31;20552;-59
2023/01/02 04:11:38;;;;;;;11.23;5.82;;;;;;;13.24;100.00;100789.25;2615730;36;20443;-60
2023/01/02 04:14:14;;;;;;;13.02;6.15;;;;;;;13.36;100.00;100791.75;2615767;36;20030;-60
2023/01/02 04:16:47;;;;;;;13.88;5.65;;;;;;;13.23;100.00;100795.63;2615712;31;20034;-60
2023/01/02 04:19:24;;;;;;;12.45;5.53;;;;;;;13.37;100.00;100790.72;2614257;36;20045;-59
2023/01/02 04:21:57;;;;;;;15.77;5.40;;;;;;;13.37;100.00;100790.72;2615519;36;20045;-60
2023/01/02 04:24:29;;;;;;;11.93;5.70;;;;;;;13.30;100.00;100787.78;2615173;36;20045;-60
2023/01/02 04:27:02;;;;;;;9.95;5.45;;;;;;;13.33;100.00;100785.59;2615757;36;20562;-61
2023/01/02 04:29:31;;;;;;;13.48;5.22;;;;;;;13.49;100.00;100795.72;2615478;31;20023;-61
2023/01/02 04:32:05;;;;;;;11.88;4.78;;;;;;;13.62;100.00;100792.63;2615655;36;20023;-60
2023/01/02 04:34:40;;;;;;;9.40;5.40;;;;;;;13.46;100.00;100784.41;2615485;31;20443;-60
2023/01/02 04:37:08;;;;;;;9.90;5.03;;;;;;;13.52;100.00;100788.34;2615369;36;20049;-59
2023/01/02 04:39:39;;;;;;;13.13;6.20;;;;;;;13.56;100.00;100793.25;2615052;36;20701;-59
2023/01/02 04:42:07;;;;;;;12.05;5.45;;;;;;;13.47;100.00;100784.25;2615777;36;20169;-59
2023/01/02 04:44:35;;;;;;;10.73;4.45;;;;;;;13.53;100.00;100790.88;2614644;36;20550;-60
2023/01/02 04:47:08;;;;;;;10.57;4.80;;;;;;;13.47;100.00;100795.06;2615944;39;20419;-60
2023/01/02 04:49:39;;;;;;;15.10;5.95;;;;;;;13.45;100.00;100804.31;2614852;36;20077;-60
2023/01/02 04:52:07;;;;;;;12.57;4.85;;;;;;;13.50;100.00;100796.59;2614885;36;20026;-61
2023/01/02 04:54:35;;;;;;;12.27;5.47;;;;;;;13.51;100.00;100797.44;2614747;36;20038;-59
2023/01/02 04:57:04;;;;;;;15.85;5.45;;;;;;;13.56;100.00;100790.56;2615567;36;20037;-59
2023/01/02 04:59:32;;;;;;;12.00;5.22;;;;;;;13.50;100.00;100780.38;2615040;36;20046;-59
2023/01/02 05:02:00;;;;;;;9.07;5.33;;;;;;;13.43;100.00;100790.13;2615361;36;20034;-60
2023/01/02 05:04:29;;;;;;;9.87;5.00;;;;;;;13.46;100.00;100785.22;2615221;36;20546;-60
2023/01/02 05:07:00;;;;;;;13.17;5.23;;;;;;;13.46;100.00;100789.81;2614425;36;20061;-59
2023/01/02 05:09:28;;;;;;;8.13;5.28;;;;;;;13.65;100.00;100795.00;2614521;31;20046;-59
2023/01/02 05:11:56;;;;;;;11.80;5.47;;;;;;;13.55;100.00;100793.41;2614117;36;20653;-59
2023/01/02 05:14:25;;;;;;;11.20;5.37;;;;;;;13.52;100.00;100794.56;2614117;36;20022;-59
2023/01/02 05:16:53;;;;;;;9.85;5.20;;;;;;;13.40;100.00;100801.25;2615437;36;20546;-59
2023/01/02 05:19:21;;;;;;;9.20;5.10;;;;;;;13.47;100.00;100805.88;2615379;36;20038;-60
2023/01/02 05:24:33;;;;;;;10.48;5.60;;;;;;;13.54;100.00;100808.78;2614674;36;20058;-60
2023/01/02 05:27:27;;;;;;;9.98;6.13;;;;;;;13.62;100.00;100814.25;2632068;36;20031;-60
2023/01/02 05:29:56;;;;;;;9.77;5.65;;;;;;;13.57;100.00;100811.16;2615198;36;20037;-60
2023/01/02 05:32:24;;;;;;;12.53;6.30;;;;;;;13.55;100.00;100832.13;2614723;36;20034;-59
2023/01/02 05:34:52;;;;;;;12.90;6.00;;;;;;;13.60;100.00;100840.63;2615241;36;20295;-59
2023/01/02 05:37:21;;;;;;;12.37;5.97;;;;;;;13.42;100.00;100832.50;2615093;36;20034;-60
2023/01/02 05:39:52;;;;;;;9.07;6.78;;;;;;;13.46;100.00;100835.75;2615796;36;20458;-59
2023/01/02 05:42:20;;;;;;;13.82;6.55;;;;;;;13.42;100.00;100832.50;2613903;31;20030;-59
2023/01/02 05:44:50;;;;;;;13.67;6.50;;;;;;;13.48;100.00;100825.63;2614410;31;20889;-59
2023/01/02 05:47:18;;;;;;;10.32;5.57;;;;;;;13.44;100.00;100835.06;2614392;36;20045;-60
2023/01/02 05:49:46;;;;;;;11.90;6.00;;;;;;;13.39;100.00;100848.19;2615822;31;20041;-60
2023/01/02 05:52:15;;;;;;;9.93;5.70;;;;;;;13.38;100.00;100857.31;2614995;36;20042;-59
2023/01/02 05:54:43;;;;;;;9.43;6.47;;;;;;;13.29;100.00;100854.50;2614335;36;20539;-60
2023/01/02 05:57:14;;;;;;;10.07;5.43;;;;;;;13.28;100.00;100879.84;2615906;36;20030;-58
2023/01/02 05:59:42;;;;;;;12.48;5.70;;;;;;;13.22;100.00;100871.47;2615428;36;20046;-60
2023/01/02 06:02:10;;;;;;;9.10;5.60;;;;;;;13.13;100.00;100892.16;2615711;36;20065;-59
2023/01/02 06:04:39;;;;;;;9.05;5.03;;;;;;;12.85;100.00;100888.63;2614032;36;20041;-59
2023/01/02 06:07:07;;;;;;;6.43;4.00;;;;;;;12.65;100.00;100909.47;2615421;31;20446;-59
2023/01/02 06:09:35;;;;;;;5.20;3.22;;;;;;;12.47;100.00;100923.75;2615809;36;20030;-61
2023/01/02 06:12:04;;;;;;;5.10;2.67;;;;;;;12.18;100.00;100924.69;2615323;36;20038;-58
2023/01/02 06:14:35;;;;;;;4.53;2.40;;;;;;;12.06;100.00;100936.63;2615300;36;20034;-59
2023/01/02 06:17:03;;;;;;;3.53;2.10;;;;;;;11.95;100.00;100952.97;2615065;36;20570;-58
2023/01/02 06:19:31;;;;;;;3.25;2.05;;;;;;;11.76;100.00;100954.63;2616660;36;20427;-60
2023/01/02 06:21:59;;;;;;;2.67;1.63;;;;;;;11.78;100.00;100967.97;2615915;36;20493;-59
2023/01/02 06:24:29;;;;;;;2.92;2.10;;;;;;;11.75;100.00;100969.13;2616144;36;20034;-58
2023/01/02 06:26:57;;;;;;;;;;;;;;;11.68;100.00;100971.50;2616200;36;20419;-58
2023/01/02 06:29:25;;;;;;;3.95;2.03;;;;;;;11.66;100.00;100967.25;2616353;36;20451;-58
2023/01/02 06:31:56;;;;;;;2.00;1.45;;;;;;;11.60;100.00;100995.66;2615535;36;20030;-59
2023/01/02 06:34:24;;;;;;;1.98;1.48;;;;;;;11.48;100.00;101002.13;2614826;36;20029;-58
2023/01/02 06:36:53;;;;;;;3.25;1.33;;;;;;;11.57;100.00;101009.38;2616147;36;20545;-58
2023/01/02 06:39:21;;;;;;;2.85;1.45;;;;;;;11.39;100.00;101019.97;2615593;36;20034;-58
2023/01/02 06:41:49;;;;;;;2.67;1.70;;;;;;;11.38;100.00;101026.34;2616193;36;20030;-58
2023/01/02 06:44:18;;;;;;;3.70;2.22;;;;;;;11.45;100.00;101040.97;2615917;31;20022;-58
2023/01/02 06:46:46;;;;;;;3.07;2.07;;;;;;;11.38;100.00;101034.44;2615975;36;20035;-59
2023/01/02 06:49:17;;;;;;;4.63;2.70;;;;;;;11.40;100.00;101040.56;2616188;36;20053;-58
2023/01/02 06:51:45;;;;;;;6.80;3.63;;;;;;;11.17;100.00;101046.16;2615791;36;20538;-59
2023/01/02 06:54:16;;;;;;;5.38;3.30;;;;;;;11.20;100.00;101048.59;2616494;36;20039;-58
2023/01/02 06:56:45;;;;;;;6.13;3.67;;;;;;;11.17;100.00;101065.03;2616258;36;20030;-60
2023/01/02 06:59:13;;;;;;;6.13;4.33;;;;;;;11.13;100.00;101073.47;2616295;36;20030;-59
2023/01/02 07:01:41;;;;;;;6.63;3.90;;;;;;;11.02;100.00;101087.91;2616594;36;20601;-58
2023/01/02 07:04:18;;;;;;;5.53;3.78;;;;;;;11.11;100.00;101092.47;2616162;36;20431;-58
2023/01/02 07:06:47;;;;;;;6.15;4.38;;;;;;;11.00;100.00;101089.88;2616376;36;20403;-58
2023/01/02 07:09:15;;;;;;;5.45;3.92;;;;;;;10.97;100.00;101085.59;2615025;36;20055;-58
2023/01/02 07:11:44;;;;;;;4.97;3.60;;;;;;;10.99;100.00;101099.78;2615759;36;20038;-58
2023/01/02 07:14:12;;;;;;;6.35;4.05;;;;;;;11.04;100.00;101119.09;2615982;36;20031;-60
2023/01/02 07:16:40;;;;;;;7.00;4.50;;;;;;;11.09;100.00;101124.09;2615698;36;20073;-58
2023/01/02 07:19:09;;;;;;;7.65;4.80;;;;;;;11.09;100.00;101126.78;2615039;36;20069;-59
2023/01/02 07:21:39;;;;;;;9.90;5.25;;;;;;;11.00;100.00;101135.66;2615939;36;20038;-58
2023/01/02 07:24:08;;;;;;;8.88;6.22;;;;;;;10.96;100.00;101136.91;2616471;31;20472;-59
2023/01/02 07:26:37;;;;;;;8.82;5.43;;;;;;;10.96;100.00;101145.00;2615802;36;20375;-58
2023/01/02 07:29:05;;;;;;;9.10;6.15;;;;;;;10.89;100.00;101135.72;2615346;36;20034;-58
2023/01/02 07:31:34;;;;;;;8.77;6.30;;;;;;;10.78;100.00;101142.88;2616347;36;20026;-60
2023/01/02 07:34:03;;;;;;;9.10;6.55;;;;;;;10.74;100.00;101149.50;2616342;36;20041;-58
2023/01/02 07:36:31;;;;;;;9.02;5.57;;;;;;;10.82;100.00;101165.00;2616030;36;20041;-59
2023/01/02 07:39:02;;;;;;;9.75;5.70;;;;;;;10.71;100.00;101160.53;2615182;36;20633;-59
2023/01/02 07:41:31;;;;;;;6.05;4.20;;;;;;;10.70;100.00;101169.59;2616169;36;20052;-58
2023/01/02 07:43:59;;;;;;;7.28;4.85;;;;;;;10.86;100.00;101191.56;2616525;36;20027;-60
2023/01/02 07:46:27;;;;;;;8.50;4.38;;;;;;;10.77;100.00;101192.31;2615875;36;20034;-59
2023/01/02 07:48:56;;;;;;;6.82;4.43;;;;;;;10.78;100.00;101206.66;2615599;36;20581;-58
2023/01/02 07:51:24;;;;;;;6.30;3.67;;;;;;;10.61;100.00;101216.97;2616060;36;20045;-58
2023/01/02 07:53:52;;;;;;;6.13;3.63;;;;;;;10.69;100.00;101221.75;2616300;36;20155;-59
2023/01/02 07:56:23;;;;;;;8.48;3.08;;;;;;;10.57;100.00;101225.44;2615499;36;20905;-58
2023/01/02 07:58:52;;;;;;;6.18;2.85;;;;;;;10.54;100.00;101237.34;2616243;31;20023;-60
2023/01/02 08:01:20;;;;;;;5.55;3.05;;;;;;;10.61;100.00;101248.44;2615984;31;20030;-59
2023/01/02 08:03:49;;;;;;;6.78;3.45;;;;;;;10.48;100.00;101257.53;2615431;31;20027;-58
2023/01/02 08:06:19;;;;;;;5.35;2.80;;;;;;;10.41;100.00;101264.38;2615476;31;20034;-58
2023/01/02 08:08:48;;;;;;;5.05;2.60;;;;;;;10.47;100.00;101277.34;2615719;36;20031;-58
2023/01/02 08:11:18;;;;;;;4.32;2.17;;;;;;;10.52;100.00;101282.34;2615998;36;20034;-58
2023/01/02 08:13:49;;;;;;;4.72;2.42;;;;;;;10.49;100.00;101291.50;2615623;36;20033;-59
2023/01/02 08:16:20;;;;;;;6.65;2.10;;;;;;;10.44;100.00;101293.72;2616347;36;20573;-59
2023/01/02 08:18:50;;;;;;;6.82;2.30;;;;;;;10.50;100.00;101304.00;2616031;36;20037;-58
2023/01/02 08:21:18;;;;;;;4.82;2.88;;;;;;;10.56;100.00;101308.03;2616704;36;20260;-58
2023/01/02 08:23:47;;;;;;;4.80;3.08;;;;;;;10.52;100.00;101320.00;2615830;36;20459;-58
2023/01/02 08:26:15;;;;;;;4.85;3.30;;;;;;;10.32;100.00;101333.22;2616517;31;20038;-59
2023/01/02 08:28:44;;;;;;;6.75;3.53;;;;;;;10.40;100.00;101324.56;2616324;36;20030;-58
2023/01/02 08:31:16;;;;;;;5.43;3.90;;;;;;;10.56;100.00;101329.56;2616540;31;20042;-58
2023/01/02 08:33:45;;;;;;;4.70;3.15;;;;;;;10.28;100.00;101336.28;2614562;36;20318;-59
2023/01/02 08:36:15;;;;;;;5.40;3.38;;;;;;;10.36;100.00;101335.69;2615180;36;20037;-60
2023/01/02 08:38:44;;;;;;;4.57;2.75;;;;;;;10.33;100.00;101334.06;2616103;36;20147;-58
2023/01/02 08:41:12;;;;;;;6.40;3.28;;;;;;;10.37;100.00;101340.94;2616035;36;20435;-59
2023/01/02 08:43:41;;;;;;;5.25;3.03;;;;;;;10.44;100.00;101344.03;2615727;36;20037;-58
2023/01/02 08:46:11;;;;;;;5.50;3.45;;;;;;;10.40;100.00;101346.09;2615279;36;20030;-58
2023/01/02 08:48:42;;;;;;;4.93;2.72;;;;;;;10.41;100.00;101342.41;2614784;36;20035;-59
2023/01/02 08:51:11;;;;;;;5.30;2.47;;;;;;;10.30;100.00;101353.16;2609677;36;20065;-60
2023/01/02 08:53:39;;;;;;;;;;;;;;;10.21;100.00;101364.66;2614533;36;20027;-59
2023/01/02 08:56:25;;;;;;;4.50;2.38;;;;;;;10.33;100.00;101369.94;2615169;36;19954;-60
2023/01/02 08:58:58;;;;;;;5.28;2.47;;;;;;;10.35;100.00;101369.81;2615515;36;20034;-60
2023/01/02 09:01:29;;;;;;;6.05;2.10;;;;;;;10.18;100.00;101368.44;2615097;36;20033;-59
2023/01/02 09:04:01;;;;;;;4.05;2.25;;;;;;;10.09;100.00;101378.06;2614383;36;20065;-60
2023/01/02 09:06:31;;;;;;;3.35;1.83;;;;;;;10.11;100.00;101381.50;2615307;36;20563;-60
2023/01/02 09:09:01;;;;;;;6.80;2.25;;;;;;;10.21;100.00;101388.84;2615355;36;20037;-59
2023/01/02 09:11:32;;;;;;;7.03;2.00;;;;;;;10.18;100.00;101395.31;2615534;36;20034;-58
2023/01/02 09:14:01;;;;;;;4.43;1.80;;;;;;;10.25;100.00;101403.78;2614246;36;20034;-58
2023/01/02 09:16:30;;;;;;;5.32;2.63;;;;;;;10.28;100.00;101409.78;2615617;36;20031;-59
2023/01/02 09:19:03;;;;;;;5.63;1.55;;;;;;;10.29;100.00;101429.44;2615116;31;20034;-59
2023/01/02 09:21:32;;;;;;;3.28;1.20;;;;;;;10.29;100.00;101429.44;2614539;36;20037;-58
2023/01/02 09:24:00;;;;;;;3.20;1.25;;;;;;;10.26;100.00;101429.69;2615472;36;20565;-61
2023/01/02 09:26:29;;;;;;;4.53;1.48;;;;;;;10.35;100.00;101431.72;2614859;36;20034;-58
2023/01/02 09:28:57;;;;;;;5.77;1.70;;;;;;;10.34;100.00;101433.53;2615564;36;20037;-59
2023/01/02 09:31:26;;;;;;;2.10;1.50;;;;;;;10.32;100.00;101435.47;2615755;36;20303;-59
2023/01/02 09:33:55;;;;;;;3.73;1.80;;;;;;;10.33;100.00;101444.38;2615701;36;20030;-59
2023/01/02 09:36:26;;;;;;;6.80;1.80;;;;;;;10.49;100.00;101447.59;2615715;36;20041;-59
2023/01/02 09:38:55;;;;;;;3.13;1.70;;;;;;;10.38;100.00;101452.13;2615628;36;20031;-59
2023/01/02 09:41:38;;;;;;;3.78;1.83;;;;;;;10.44;100.00;101449.81;2615229;36;20046;-59
2023/01/02 09:44:14;;;;;;;7.55;1.90;;;;;;;10.44;100.00;101457.91;2615442;36;20035;-60
2023/01/02 09:46:49;;;;;;;2.97;1.77;;;;;;;10.49;100.00;101463.75;2616080;36;20053;-60
2023/01/02 09:49:21;;;;;;;2.33;1.40;;;;;;;10.50;100.00;101470.88;2614976;36;20043;-58
2023/01/02 09:51:52;;;;;;;4.57;1.90;;;;;;;10.54;100.00;101482.25;2614992;36;20038;-59
2023/01/02 09:54:25;;;;;;;6.20;1.73;;;;;;;10.56;100.00;101479.44;2616259;31;20038;-59
2023/01/02 09:57:10;;;;;;;4.93;1.83;;;;;;;10.49;100.00;101479.91;2616482;36;20560;-60
2023/01/02 09:59:48;;;;;;;5.07;1.50;;;;;;;10.43;100.00;101483.09;2616191;36;20038;-59
2023/01/02 10:02:32;;;;;;;3.90;1.27;;;;;;;10.34;100.00;101481.13;2616212;36;20031;-60
2023/01/02 10:05:19;;;;;;;4.57;1.38;;;;;;;10.42;100.00;101483.19;2616507;31;20035;-59
2023/01/02 10:07:59;;;;;;;24.83;12.27;;;;;;;10.36;100.00;101481.84;2616649;36;20061;-60
2023/01/02 10:10:34;;;;;;;10.10;2.45;;;;;;;10.34;100.00;101505.34;2614410;36;20034;-60
2023/01/02 10:13:11;;;;;;;6.40;1.60;;;;;;;10.31;100.00;101495.63;2616298;36;20035;-60
2023/01/02 10:15:44;;;;;;;7.45;1.98;;;;;;;10.21;100.00;101497.31;2616854;36;20447;-61
2023/01/02 10:18:19;;;;;;;3.20;1.50;;;;;;;10.18;100.00;101493.00;2615415;31;20042;-59
2023/01/02 10:20:55;;;;;;;7.03;1.60;;;;;;;10.05;100.00;101496.78;2616389;36;20045;-59
2023/01/02 10:23:30;;;;;;;11.30;1.63;;;;;;;10.23;100.00;101498.06;2613967;36;20046;-60
2023/01/02 10:26:03;;;;;;;5.18;1.50;;;;;;;10.27;100.00;101504.06;2615558;36;20038;-60
2023/01/02 10:28:41;;;;;;;5.85;1.83;;;;;;;10.43;100.00;101501.06;2616017;36;20035;-60
2023/01/02 10:31:17;;;;;;;6.35;1.70;;;;;;;10.59;100.00;101501.59;2616427;36;20048;-58
2023/01/02 10:33:49;;;;;;;7.75;1.88;;;;;;;10.55;100.00;101501.94;2615597;36;20034;-60
2023/01/02 10:36:25;;;;;;;5.40;1.20;;;;;;;10.47;100.00;101495.31;2615699;36;20035;-60
2023/01/02 10:39:00;;;;;;;2.45;1.25;;;;;;;10.60;100.00;101491.66;2614070;36;20038;-60
2023/01/02 10:41:30;;;;;;;4.70;1.30;;;;;;;10.55;100.00;101489.34;2614126;31;20543;-59
2023/01/02 10:44:04;;;;;;;5.10;1.40;;;;;;;10.68;100.00;101491.94;2615785;36;20026;-60
2023/01/02 10:46:36;;;;;;;10.32;2.00;;;;;;;10.69;100.00;101486.41;2615000;36;20037;-59
2023/01/02 10:49:05;;;;;;;3.17;1.73;;;;;;;10.84;100.00;101488.88;2615962;36;20539;-60
2023/01/02 10:51:35;;;;;;;6.93;2.30;;;;;;;10.81;100.00;101498.06;2616871;31;20042;-61
2023/01/02 10:54:09;;;;;;;7.82;1.85;;;;;;;10.68;100.00;101483.84;2615217;36;20042;-61
2023/01/02 10:56:39;;;;;;;10.40;1.90;;;;;;;10.73;100.00;101488.88;2616004;36;20053;-59
2023/01/02 10:59:22;;;;;;;3.42;1.40;;;;;;;10.73;100.00;101497.78;2613312;36;20022;-60
2023/01/02 11:01:52;;;;;;;5.72;2.33;;;;;;;10.66;100.00;101501.97;2614439;36;20031;-61
2023/01/02 11:04:25;;;;;;;6.68;1.80;;;;;;;10.54;100.00;101508.31;2614627;31;20037;-59
2023/01/02 11:06:57;;;;;;;3.97;1.77;;;;;;;10.66;100.00;101513.59;2615159;36;20034;-60
2023/01/02 11:09:29;;;;;;;8.13;1.63;;;;;;;10.30;100.00;101514.59;2615496;36;20033;-60
2023/01/02 11:12:02;;;;;;;4.68;1.52;;;;;;;10.52;100.00;101514.66;2615307;36;20060;-60
2023/01/02 11:14:33;;;;;;;4.28;1.83;;;;;;;10.60;100.00;101522.16;2613612;31;20459;-59
2023/01/02 11:17:06;;;;;;;9.18;2.35;;;;;;;10.56;100.00;101522.50;2614099;36;20030;-60
2023/01/02 11:19:42;;;;;;;7.28;2.03;;;;;;;10.43;100.00;101527.97;2615362;36;20420;-61
2023/01/02 11:22:11;;;;;;;8.05;2.10;;;;;;;10.53;100.00;101520.91;2613576;36;20046;-60
2023/01/02 11:24:55;;;;;;;4.68;1.58;;;;;;;10.56;100.00;101522.50;2614658;36;20019;-59
2023/01/02 11:27:24;;;;;;;4.72;1.48;;;;;;;10.52;100.00;101525.41;2614745;36;20428;-60
2023/01/02 11:29:53;;;;;;;4.57;1.50;;;;;;;10.56;100.00;101530.59;2615343;31;20042;-60
2023/01/02 11:32:26;;;;;;;4.32;1.63;;;;;;;10.45;100.00;101531.41;2615578;36;20041;-59
2023/01/02 11:35:01;;;;;;;5.63;1.80;;;;;;;10.46;100.00;101541.19;2611654;36;20046;-59
2023/01/02 11:37:30;;;;;;;5.88;1.92;;;;;;;10.46;100.00;101531.28;2613226;36;20042;-61